Time;durP1;ratioP1;P1;durP2;ratioP2;P2;SDS_P1;SDS_P2;PMS_P1;PMS_P2;Temp;Humidity;BMP_temperature;BMP_pressure;BME280_temperature;BME280_humidity;BME280_pressure;Samples;Min_cycle;Max_cycle;Signal;HPM_P1;HPM_P2
2022/10/01 00:01:51;;;;;;;7.03;2.53;;;;;;;;;;4972125;28;20101;-72
2022/10/01 00:04:17;;;;;;;8.52;2.40;;;;;;;;;;4963139;28;20081;-72
2022/10/01 00:06:43;;;;;;;6.93;2.55;;;;;;;;;;4963334;28;20019;-69
2022/10/01 00:09:09;;;;;;;8.52;2.53;;;;;;;;;;4972185;28;20031;-70
2022/10/01 00:11:35;;;;;;;8.30;2.45;;;;;;;;;;4967752;28;20030;-71
2022/10/01 00:14:01;;;;;;;9.43;2.85;;;;;;;;;;4958153;28;20421;-66
2022/10/01 00:16:28;;;;;;;10.98;3.10;;;;;;;;;;4972135;28;20071;-68
2022/10/01 00:18:55;;;;;;;10.15;3.30;;;;;;;;;;4974867;28;20042;-72
2022/10/01 00:21:25;;;;;;;6.90;3.08;;;;;;;;;;4965673;28;20034;-69
2022/10/01 00:23:56;;;;;;;7.22;2.78;;;;;;;;;;4973148;28;20397;-70
2022/10/01 00:26:26;;;;;;;4.65;2.72;;;;;;;;;;4971774;28;20520;-67
2022/10/01 00:28:57;;;;;;;6.93;3.50;;;;;;;;;;4961420;28;20058;-71
2022/10/01 00:31:25;;;;;;;5.85;3.05;;;;;;;;;;4970424;28;20046;-71
2022/10/01 00:33:52;;;;;;;10.73;4.10;;;;;;;;;;4968773;28;20481;-64
2022/10/01 00:36:18;;;;;;;10.75;3.88;;;;;;;;;;4973532;28;20038;-71
2022/10/01 00:38:46;;;;;;;8.70;3.53;;;;;;;;;;4965700;28;20050;-70
2022/10/01 00:41:14;;;;;;;10.07;3.05;;;;;;;;;;4955835;28;20039;-64
2022/10/01 00:43:46;;;;;;;9.63;3.80;;;;;;;;;;4972648;28;20098;-71
2022/10/01 00:46:24;;;;;;;7.65;3.58;;;;;;;;;;4974017;28;20045;-72
2022/10/01 00:48:59;;;;;;;7.32;3.63;;;;;;;;;;4965066;28;20053;-63
2022/10/01 00:51:30;;;;;;;10.88;3.80;;;;;;;;;;4962079;28;20043;-67
2022/10/01 00:54:04;;;;;;;8.40;3.60;;;;;;;;;;4966734;28;20026;-61
2022/10/01 00:56:31;;;;;;;8.27;3.80;;;;;;;;;;4968214;28;20042;-70
2022/10/01 00:58:59;;;;;;;8.02;3.67;;;;;;;;;;4968898;28;20065;-64
2022/10/01 01:01:26;;;;;;;7.78;3.90;;;;;;;;;;4973805;28;20046;-63
2022/10/01 01:03:52;;;;;;;7.10;3.28;;;;;;;;;;4969968;28;20085;-62
2022/10/01 01:06:18;;;;;;;7.88;3.10;;;;;;;;;;4967433;28;20027;-62
2022/10/01 01:08:44;;;;;;;5.38;3.00;;;;;;;;;;4960190;28;20094;-61
2022/10/01 01:11:38;;;;;;;11.15;3.42;;;;;;;;;;4967110;28;20900;-62
2022/10/01 01:14:17;;;;;;;7.63;3.40;;;;;;;;;;4969888;28;20030;-62
2022/10/01 01:16:57;;;;;;;7.75;3.45;;;;;;;;;;4965698;28;20031;-62
2022/10/01 01:19:42;;;;;;;14.00;3.45;;;;;;;;;;4972928;28;20037;-62
2022/10/01 01:22:12;;;;;;;7.57;3.15;;;;;;;;;;4967415;28;20099;-62
2022/10/01 01:25:02;;;;;;;9.32;3.53;;;;;;;;;;4959915;28;20081;-64
2022/10/01 01:27:31;;;;;;;6.90;3.05;;;;;;;;;;4974897;28;20035;-64
2022/10/01 01:30:14;;;;;;;8.18;3.08;;;;;;;;;;4975115;28;20078;-63
2022/10/01 01:32:54;;;;;;;12.18;3.60;;;;;;;;;;4974864;28;20065;-63
2022/10/01 01:35:31;;;;;;;14.85;3.58;;;;;;;;;;4974649;28;20551;-64
2022/10/01 01:38:04;;;;;;;11.23;3.55;;;;;;;;;;4974856;28;20049;-64
2022/10/01 01:40:31;;;;;;;;;;;;;;;;;;4975066;28;20126;-64
2022/10/01 01:42:59;;;;;;;11.02;3.47;;;;;;;;;;4972722;28;20310;-64
2022/10/01 01:45:29;;;;;;;7.88;3.00;;;;;;;;;;4973007;28;20501;-65
2022/10/01 01:47:58;;;;;;;7.13;3.00;;;;;;;;;;4974388;28;20034;-64
2022/10/01 01:50:27;;;;;;;8.40;2.40;;;;;;;;;;4968906;28;20451;-62
2022/10/01 01:52:54;;;;;;;7.28;3.03;;;;;;;;;;4972316;28;20034;-63
2022/10/01 01:55:23;;;;;;;7.13;2.50;;;;;;;;;;4974010;28;20038;-62
2022/10/01 01:57:50;;;;;;;8.65;3.10;;;;;;;;;;4974241;28;20473;-64
2022/10/01 02:00:16;;;;;;;8.65;2.83;;;;;;;;;;4974480;28;20482;-62
2022/10/01 02:02:50;;;;;;;10.50;3.03;;;;;;;;;;4974143;28;20058;-60
2022/10/01 02:05:24;;;;;;;5.82;2.50;;;;;;;;;;4973907;28;20053;-61
2022/10/01 02:07:56;;;;;;;5.75;2.90;;;;;;;;;;4972171;28;20046;-64
2022/10/01 02:10:49;;;;;;;6.35;2.72;;;;;;;;;;4968993;28;20094;-63
2022/10/01 02:13:51;;;;;;;5.50;2.70;;;;;;;;;;4973833;28;20488;-63
2022/10/01 02:16:29;;;;;;;8.50;2.80;;;;;;;;;;4972822;28;20035;-63
2022/10/01 02:19:04;;;;;;;12.15;3.30;;;;;;;;;;4974014;28;20109;-63
2022/10/01 02:21:40;;;;;;;10.10;3.67;;;;;;;;;;4974237;28;20382;-65
2022/10/01 02:24:15;;;;;;;5.65;2.75;;;;;;;;;;4973594;28;20038;-64
2022/10/01 02:26:43;;;;;;;16.88;7.95;;;;;;;;;;4969236;28;20406;-62
2022/10/01 02:29:12;;;;;;;7.20;3.50;;;;;;;;;;4954582;28;20035;-63
2022/10/01 02:31:40;;;;;;;11.25;3.40;;;;;;;;;;4973759;28;20034;-65
2022/10/01 02:34:07;;;;;;;8.80;3.20;;;;;;;;;;4973232;28;20458;-63
2022/10/01 02:36:36;;;;;;;12.27;3.28;;;;;;;;;;4973194;28;20038;-63
2022/10/01 02:39:04;;;;;;;7.13;3.53;;;;;;;;;;4973540;28;20026;-62
2022/10/01 02:41:34;;;;;;;8.88;3.03;;;;;;;;;;4973516;28;20041;-65
2022/10/01 02:44:22;;;;;;;9.40;3.42;;;;;;;;;;4973472;28;20026;-63
2022/10/01 02:47:02;;;;;;;11.75;3.85;;;;;;;;;;4973006;28;20030;-62
2022/10/01 02:49:29;;;;;;;11.10;2.97;;;;;;;;;;4970169;28;20544;-62
2022/10/01 02:52:09;;;;;;;11.93;3.75;;;;;;;;;;4972498;28;20377;-62
2022/10/01 02:55:08;;;;;;;9.95;3.25;;;;;;;;;;4971681;28;20093;-63
2022/10/01 02:57:35;;;;;;;6.68;3.00;;;;;;;;;;4961100;28;20046;-63
2022/10/01 03:00:07;;;;;;;7.40;2.97;;;;;;;;;;4972935;28;20614;-62
2022/10/01 03:02:33;;;;;;;8.45;3.30;;;;;;;;;;4972041;28;20027;-64
2022/10/01 03:04:59;;;;;;;9.57;3.33;;;;;;;;;;4972922;28;20472;-63
2022/10/01 03:07:28;;;;;;;12.73;3.78;;;;;;;;;;4972976;28;20058;-63
2022/10/01 03:09:55;;;;;;;8.45;3.30;;;;;;;;;;4972934;28;20031;-63
2022/10/01 03:12:22;;;;;;;9.73;3.85;;;;;;;;;;4972795;28;20061;-62
2022/10/01 03:14:48;;;;;;;12.80;3.28;;;;;;;;;;4972951;28;20030;-62
2022/10/01 03:17:16;;;;;;;9.07;3.78;;;;;;;;;;4973076;28;20047;-63
2022/10/01 03:19:42;;;;;;;11.75;3.20;;;;;;;;;;4973584;28;20493;-63
2022/10/01 03:22:10;;;;;;;6.65;3.10;;;;;;;;;;4973184;28;20035;-62
2022/10/01 03:24:36;;;;;;;6.82;2.90;;;;;;;;;;4973252;28;20462;-62
2022/10/01 03:27:02;;;;;;;6.53;3.08;;;;;;;;;;4973764;28;20039;-62
2022/10/01 03:29:28;;;;;;;8.13;2.97;;;;;;;;;;4973759;28;20031;-63
2022/10/01 03:31:54;;;;;;;9.52;2.88;;;;;;;;;;4973660;28;20050;-62
2022/10/01 03:34:20;;;;;;;8.82;3.25;;;;;;;;;;4973762;28;20027;-64
2022/10/01 03:36:47;;;;;;;7.30;2.78;;;;;;;;;;4973994;28;20037;-63
2022/10/01 03:39:13;;;;;;;11.25;3.35;;;;;;;;;;4973902;28;20429;-61
2022/10/01 03:41:39;;;;;;;11.68;3.45;;;;;;;;;;4973752;28;20062;-62
2022/10/01 03:44:05;;;;;;;4.13;2.47;;;;;;;;;;4973901;28;20473;-63
2022/10/01 03:46:31;;;;;;;6.20;2.53;;;;;;;;;;4973747;28;20066;-63
2022/10/01 03:48:59;;;;;;;12.13;3.20;;;;;;;;;;4973857;28;20042;-64
2022/10/01 03:51:29;;;;;;;10.88;3.20;;;;;;;;;;4974131;28;20043;-71
2022/10/01 03:53:57;;;;;;;6.07;2.70;;;;;;;;;;4977832;28;20031;-72
2022/10/01 03:56:23;;;;;;;8.80;3.05;;;;;;;;;;4977638;28;20114;-70
2022/10/01 03:58:49;;;;;;;6.97;2.88;;;;;;;;;;4977631;28;20039;-71
2022/10/01 04:01:15;;;;;;;10.60;2.85;;;;;;;;;;4977376;28;20552;-71
2022/10/01 04:03:42;;;;;;;7.05;3.00;;;;;;;;;;4977545;28;20070;-71
2022/10/01 04:06:09;;;;;;;14.70;3.42;;;;;;;;;;4992253;28;20034;-60
2022/10/01 04:08:35;;;;;;;15.48;3.53;;;;;;;;;;4976906;28;20034;-60
2022/10/01 04:11:01;;;;;;;12.32;3.38;;;;;;;;;;4977118;28;20109;-60
2022/10/01 04:13:28;;;;;;;11.68;3.08;;;;;;;;;;4977218;28;20071;-61
2022/10/01 04:15:55;;;;;;;8.43;3.67;;;;;;;;;;4977603;28;20023;-60
2022/10/01 04:18:21;;;;;;;8.50;3.28;;;;;;;;;;4976758;28;20039;-62
2022/10/01 04:20:47;;;;;;;10.25;3.30;;;;;;;;;;4977042;28;20034;-71
2022/10/01 04:23:13;;;;;;;11.25;3.55;;;;;;;;;;4977173;28;20181;-67
2022/10/01 04:25:39;;;;;;;5.80;2.90;;;;;;;;;;4977592;28;20438;-65
2022/10/01 04:28:07;;;;;;;9.27;3.28;;;;;;;;;;4976839;28;20053;-68
2022/10/01 04:30:36;;;;;;;11.20;4.07;;;;;;;;;;4976412;28;20023;-67
2022/10/01 04:33:03;;;;;;;14.93;4.50;;;;;;;;;;4976920;28;20105;-65
2022/10/01 04:35:31;;;;;;;11.77;3.67;;;;;;;;;;4977099;28;20102;-70
2022/10/01 04:38:03;;;;;;;12.95;3.92;;;;;;;;;;4976799;28;20022;-63
2022/10/01 04:40:34;;;;;;;9.93;3.28;;;;;;;;;;4976683;28;20035;-62
2022/10/01 04:43:00;;;;;;;16.63;3.90;;;;;;;;;;4976713;28;20027;-62
2022/10/01 04:45:26;;;;;;;14.90;4.10;;;;;;;;;;4976902;28;20480;-61
2022/10/01 04:47:54;;;;;;;15.30;4.68;;;;;;;;;;4976756;28;20050;-63
2022/10/01 04:50:22;;;;;;;12.98;4.88;;;;;;;;;;4970746;28;20073;-62
2022/10/01 04:52:50;;;;;;;16.58;4.45;;;;;;;;;;4957277;28;20031;-62
2022/10/01 04:55:17;;;;;;;12.90;4.00;;;;;;;;;;4959374;28;20023;-62
2022/10/01 04:57:43;;;;;;;17.77;4.07;;;;;;;;;;4957224;28;20453;-62
2022/10/01 05:00:12;;;;;;;14.10;4.50;;;;;;;;;;4956790;28;20047;-62
2022/10/01 05:02:39;;;;;;;18.55;4.65;;;;;;;;;;4956485;28;20501;-63
2022/10/01 05:05:06;;;;;;;18.85;4.57;;;;;;;;;;4956892;28;20555;-63
2022/10/01 05:07:33;;;;;;;15.02;4.10;;;;;;;;;;4956588;29;20027;-62
2022/10/01 05:09:59;;;;;;;17.50;4.25;;;;;;;;;;4971687;28;20031;-63
2022/10/01 05:12:27;;;;;;;13.43;3.78;;;;;;;;;;4956953;28;20047;-61
2022/10/01 05:14:54;;;;;;;9.82;4.25;;;;;;;;;;4962340;28;20489;-63
2022/10/01 05:17:20;;;;;;;15.57;4.03;;;;;;;;;;4975771;28;20119;-62
2022/10/01 05:19:47;;;;;;;11.80;3.83;;;;;;;;;;4975877;28;20030;-63
2022/10/01 05:22:14;;;;;;;19.98;4.22;;;;;;;;;;4975552;28;20456;-70
2022/10/01 05:24:40;;;;;;;15.30;3.88;;;;;;;;;;4975905;28;20390;-72
2022/10/01 05:27:12;;;;;;;18.23;3.95;;;;;;;;;;4975250;28;20125;-64
2022/10/01 05:29:41;;;;;;;9.80;4.15;;;;;;;;;;4974925;28;20035;-71
2022/10/01 05:32:09;;;;;;;18.73;4.65;;;;;;;;;;4975052;28;20034;-72
2022/10/01 05:34:35;;;;;;;13.40;4.13;;;;;;;;;;4975823;28;20038;-73
2022/10/01 05:37:01;;;;;;;12.10;4.43;;;;;;;;;;4975414;28;20535;-71
2022/10/01 05:39:28;;;;;;;17.27;4.43;;;;;;;;;;4975571;28;20039;-64
2022/10/01 05:41:54;;;;;;;16.77;4.38;;;;;;;;;;4975406;28;20524;-71
2022/10/01 05:44:24;;;;;;;12.00;3.75;;;;;;;;;;4975252;28;20043;-66
2022/10/01 05:46:52;;;;;;;26.40;5.18;;;;;;;;;;4989804;28;20465;-62
2022/10/01 05:49:18;;;;;;;15.38;4.10;;;;;;;;;;4975116;28;19917;-62
2022/10/01 05:51:45;;;;;;;11.60;4.22;;;;;;;;;;4975156;28;20023;-70
2022/10/01 05:54:11;;;;;;;11.23;4.07;;;;;;;;;;4974150;28;20119;-72
2022/10/01 05:56:38;;;;;;;17.48;3.90;;;;;;;;;;4975199;28;20042;-63
2022/10/01 05:59:04;;;;;;;12.25;3.22;;;;;;;;;;4974957;28;20033;-75
2022/10/01 06:01:31;;;;;;;15.70;3.33;;;;;;;;;;4974597;28;20141;-67
2022/10/01 06:03:57;;;;;;;13.40;3.50;;;;;;;;;;4975109;28;20031;-73
2022/10/01 06:06:25;;;;;;;14.05;3.80;;;;;;;;;;4975309;28;20035;-68
2022/10/01 06:08:52;;;;;;;18.50;4.55;;;;;;;;;;4975109;28;20026;-73
2022/10/01 06:11:18;;;;;;;17.38;4.10;;;;;;;;;;4974924;28;20030;-69
2022/10/01 06:13:45;;;;;;;11.95;4.57;;;;;;;;;;4974924;28;20033;-70
2022/10/01 06:16:12;;;;;;;14.02;4.30;;;;;;;;;;4974567;28;20125;-68
2022/10/01 06:18:39;;;;;;;13.45;4.57;;;;;;;;;;4974837;28;20470;-72
2022/10/01 06:21:05;;;;;;;6.65;2.92;;;;;;;;;;4989477;28;20089;-78
2022/10/01 06:23:31;;;;;;;9.50;2.60;;;;;;;;;;4974079;28;20066;-71
2022/10/01 06:25:59;;;;;;;9.35;3.13;;;;;;;;;;4974417;28;20027;-66
2022/10/01 06:28:25;;;;;;;16.13;3.80;;;;;;;;;;4973940;28;20023;-71
2022/10/01 06:30:51;;;;;;;16.80;3.80;;;;;;;;;;4968856;28;20122;-75
2022/10/01 06:33:18;;;;;;;8.68;3.08;;;;;;;;;;4973424;28;20177;-71
2022/10/01 06:35:49;;;;;;;15.13;3.10;;;;;;;;;;4973982;28;20030;-68
2022/10/01 06:38:18;;;;;;;12.27;3.30;;;;;;;;;;4974130;28;20042;-70
2022/10/01 06:40:51;;;;;;;22.17;4.88;;;;;;;;;;4974021;28;20031;-71
2022/10/01 06:43:17;;;;;;;19.73;5.95;;;;;;;;;;4974616;28;20505;-77
2022/10/01 06:45:42;;;;;;;14.63;5.43;;;;;;;;;;4974522;28;20033;-72
2022/10/01 06:48:13;;;;;;;13.90;4.90;;;;;;;;;;4974276;28;20381;-68
2022/10/01 06:50:41;;;;;;;19.50;5.18;;;;;;;;;;4972946;28;20375;-75
2022/10/01 06:53:06;;;;;;;18.50;5.97;;;;;;;;;;4970737;28;20029;-73
2022/10/01 06:55:34;;;;;;;18.33;4.63;;;;;;;;;;4970172;28;20030;-72
2022/10/01 06:58:02;;;;;;;14.98;3.97;;;;;;;;;;4972048;28;20023;-71
2022/10/01 07:00:30;;;;;;;21.27;3.25;;;;;;;;;;4972161;28;20598;-67
2022/10/01 07:02:56;;;;;;;16.25;3.20;;;;;;;;;;4972293;28;20162;-66
2022/10/01 07:05:26;;;;;;;13.88;2.83;;;;;;;;;;4972025;28;20081;-68
2022/10/01 07:07:52;;;;;;;8.68;3.00;;;;;;;;;;4972352;28;20031;-71
2022/10/01 07:10:20;;;;;;;10.65;3.13;;;;;;;;;;4972165;28;20026;-67
2022/10/01 07:12:50;;;;;;;8.43;2.85;;;;;;;;;;4972764;28;20043;-75
2022/10/01 07:15:18;;;;;;;13.02;3.53;;;;;;;;;;4971910;28;20035;-74
2022/10/01 07:17:48;;;;;;;8.68;4.05;;;;;;;;;;4971698;28;20035;-69
2022/10/01 07:20:16;;;;;;;20.27;4.10;;;;;;;;;;4972844;28;20031;-67
2022/10/01 07:22:43;;;;;;;24.80;3.90;;;;;;;;;;4972951;28;20389;-68
2022/10/01 07:25:09;;;;;;;21.70;3.67;;;;;;;;;;4972382;28;20031;-71
2022/10/01 07:27:36;;;;;;;22.90;4.10;;;;;;;;;;4972600;28;20030;-68
2022/10/01 07:30:03;;;;;;;10.70;3.40;;;;;;;;;;4972380;28;20039;-71
2022/10/01 07:32:30;;;;;;;17.35;3.33;;;;;;;;;;4971740;28;20062;-77
2022/10/01 07:34:57;;;;;;;14.65;3.42;;;;;;;;;;4972549;28;20137;-77
2022/10/01 07:37:23;;;;;;;11.95;3.17;;;;;;;;;;4971967;28;20037;-67
2022/10/01 07:39:49;;;;;;;10.30;3.15;;;;;;;;;;4971871;28;20069;-66
2022/10/01 07:42:16;;;;;;;10.60;3.25;;;;;;;;;;4971950;28;20058;-66
2022/10/01 07:44:42;;;;;;;7.72;2.67;;;;;;;;;;4960121;28;20032;-67
2022/10/01 07:47:08;;;;;;;9.70;2.75;;;;;;;;;;4965717;28;20019;-66
2022/10/01 07:49:34;;;;;;;7.47;2.50;;;;;;;;;;4956302;28;20042;-66
2022/10/01 07:51:59;;;;;;;9.55;2.60;;;;;;;;;;4972740;28;20102;-65
2022/10/01 07:54:25;;;;;;;9.23;3.03;;;;;;;;;;4971065;28;20038;-65
2022/10/01 07:56:54;;;;;;;14.07;2.60;;;;;;;;;;4969571;28;20023;-74
2022/10/01 07:59:21;;;;;;;10.10;2.33;;;;;;;;;;4971834;28;20061;-70
2022/10/01 08:01:50;;;;;;;10.55;2.65;;;;;;;;;;4970978;28;20039;-73
2022/10/01 08:07:01;;;;;;;9.68;2.50;;;;;;;;;;4971953;28;20038;-75
2022/10/01 08:09:27;;;;;;;6.72;2.28;;;;;;;;;;4972561;28;21288;-72
2022/10/01 08:11:53;;;;;;;6.25;2.20;;;;;;;;;;4969455;28;20208;-66
2022/10/01 08:14:19;;;;;;;6.78;2.40;;;;;;;;;;4973357;28;20077;-73
2022/10/01 08:16:46;;;;;;;5.13;2.00;;;;;;;;;;4973034;28;20110;-67
2022/10/01 08:19:13;;;;;;;6.45;2.22;;;;;;;;;;4972309;28;20035;-73
2022/10/01 08:21:41;;;;;;;6.07;2.10;;;;;;;;;;4970884;28;20125;-71
2022/10/01 08:24:06;;;;;;;8.68;2.30;;;;;;;;;;4973034;28;20554;-66
2022/10/01 08:26:32;;;;;;;8.40;2.53;;;;;;;;;;4972586;28;20157;-74
2022/10/01 08:28:58;;;;;;;6.22;2.08;;;;;;;;;;4972862;28;20113;-67
2022/10/01 08:31:24;;;;;;;5.57;1.90;;;;;;;;;;4972981;28;20039;-75
2022/10/01 08:33:50;;;;;;;6.07;2.50;;;;;;;;;;4972199;28;20015;-67
2022/10/01 08:36:16;;;;;;;4.93;2.53;;;;;;;;;;4972172;28;20039;-70
2022/10/01 08:38:46;;;;;;;9.25;2.10;;;;;;;;;;4974624;28;20386;-67
2022/10/01 08:41:49;;;;;;;5.50;1.98;;;;;;;;;;4976303;28;20489;-73
2022/10/01 08:44:21;;;;;;;10.75;2.33;;;;;;;;;;4974796;28;20141;-66
2022/10/01 08:46:48;;;;;;;5.35;2.40;;;;;;;;;;4975384;28;20027;-66
2022/10/01 08:49:28;;;;;;;6.55;2.53;;;;;;;;;;4976201;28;20030;-67
2022/10/01 08:52:03;;;;;;;6.00;2.08;;;;;;;;;;4976069;28;20051;-66
2022/10/01 08:54:29;;;;;;;6.78;2.05;;;;;;;;;;4959676;28;20037;-67
2022/10/01 08:57:05;;;;;;;5.13;1.98;;;;;;;;;;4971670;28;20027;-68
2022/10/01 08:59:55;;;;;;;5.32;1.90;;;;;;;;;;4964011;28;20577;-67
2022/10/01 09:02:23;;;;;;;10.05;2.65;;;;;;;;;;4973874;28;20046;-68
2022/10/01 09:05:01;;;;;;;7.25;2.28;;;;;;;;;;4974600;28;20039;-67
2022/10/01 09:07:41;;;;;;;7.38;2.30;;;;;;;;;;4975669;28;20421;-69
2022/10/01 09:10:26;;;;;;;4.85;2.15;;;;;;;;;;4974724;28;20492;-70
2022/10/01 09:13:09;;;;;;;6.18;2.00;;;;;;;;;;4974074;28;20050;-68
2022/10/01 09:15:57;;;;;;;6.95;1.85;;;;;;;;;;4975686;28;20105;-68
2022/10/01 09:18:48;;;;;;;5.10;1.80;;;;;;;;;;4974492;28;20035;-67
2022/10/01 09:21:21;;;;;;;6.82;1.63;;;;;;;;;;4960796;28;20115;-67
2022/10/01 09:24:28;;;;;;;3.10;1.55;;;;;;;;;;4967676;28;20110;-66
2022/10/01 09:26:54;;;;;;;5.95;1.92;;;;;;;;;;4950644;29;20043;-67
2022/10/01 09:29:43;;;;;;;5.82;2.05;;;;;;;;;;4970374;28;20500;-69
2022/10/01 09:32:14;;;;;;;11.75;5.50;;;;;;;;;;4964164;28;20118;-67
2022/10/01 09:34:43;;;;;;;5.85;2.45;;;;;;;;;;4970849;28;20034;-66
2022/10/01 09:37:20;;;;;;;5.65;2.10;;;;;;;;;;4974413;28;20105;-70
2022/10/01 09:40:14;;;;;;;6.13;2.25;;;;;;;;;;4975166;28;20401;-69
2022/10/01 09:42:41;;;;;;;7.93;1.75;;;;;;;;;;4975264;28;20115;-72
2022/10/01 09:45:12;;;;;;;9.07;2.20;;;;;;;;;;4975034;28;20038;-67
2022/10/01 09:47:42;;;;;;;7.50;2.45;;;;;;;;;;4974875;28;20093;-68
2022/10/01 09:50:14;;;;;;;5.03;1.85;;;;;;;;;;4973405;28;20023;-68
2022/10/01 09:52:42;;;;;;;5.68;1.77;;;;;;;;;;4971267;28;20165;-69
2022/10/01 09:55:19;;;;;;;11.27;2.45;;;;;;;;;;4974222;28;20113;-66
2022/10/01 09:57:56;;;;;;;6.28;1.90;;;;;;;;;;4973079;28;20038;-67
2022/10/01 10:00:25;;;;;;;9.10;1.73;;;;;;;;;;4972647;28;20090;-73
2022/10/01 10:02:53;;;;;;;15.40;5.75;;;;;;;;;;4973230;28;20422;-67
2022/10/01 10:05:37;;;;;;;13.05;3.97;;;;;;;;;;4972607;28;20045;-67
2022/10/01 10:08:13;;;;;;;10.27;2.83;;;;;;;;;;4972429;28;20035;-67
2022/10/01 10:10:48;;;;;;;7.25;2.15;;;;;;;;;;4973825;28;20039;-69
2022/10/01 10:13:30;;;;;;;6.93;2.60;;;;;;;;;;4972705;28;20023;-65
2022/10/01 10:15:57;;;;;;;13.48;5.40;;;;;;;;;;4970932;28;20121;-67
2022/10/01 10:18:29;;;;;;;7.65;2.00;;;;;;;;;;4973020;28;20390;-69
2022/10/01 10:20:58;;;;;;;6.35;1.80;;;;;;;;;;4972290;28;20034;-66
2022/10/01 10:23:30;;;;;;;7.07;1.70;;;;;;;;;;4971654;28;20156;-68
2022/10/01 10:26:02;;;;;;;4.78;1.73;;;;;;;;;;4973754;28;20382;-67
2022/10/01 10:28:38;;;;;;;8.68;1.70;;;;;;;;;;4969826;28;20035;-66
2022/10/01 10:31:12;;;;;;;6.75;1.85;;;;;;;;;;4969663;28;20042;-72
2022/10/01 10:33:50;;;;;;;6.80;1.90;;;;;;;;;;4972637;28;20390;-68
2022/10/01 10:36:18;;;;;;;5.82;2.08;;;;;;;;;;4972784;28;20027;-68
2022/10/01 10:38:48;;;;;;;8.73;1.80;;;;;;;;;;4969336;28;20533;-67
2022/10/01 10:41:18;;;;;;;5.88;1.80;;;;;;;;;;4970007;28;20461;-66
2022/10/01 10:43:47;;;;;;;7.55;1.90;;;;;;;;;;4968661;28;20085;-67
2022/10/01 10:46:22;;;;;;;4.30;1.50;;;;;;;;;;4972467;28;20097;-66
2022/10/01 10:49:14;;;;;;;7.70;1.70;;;;;;;;;;4972003;28;20042;-67
2022/10/01 10:51:59;;;;;;;5.30;1.70;;;;;;;;;;4966096;28;20413;-66
2022/10/01 10:54:36;;;;;;;9.38;2.05;;;;;;;;;;4986686;28;20501;-68
2022/10/01 10:57:26;;;;;;;11.95;2.20;;;;;;;;;;4971495;28;20034;-66
2022/10/01 11:00:16;;;;;;;9.35;2.00;;;;;;;;;;4972704;28;20038;-69
2022/10/01 11:03:04;;;;;;;8.15;1.55;;;;;;;;;;4971524;28;20055;-68
2022/10/01 11:05:32;;;;;;;8.25;1.70;;;;;;;;;;4972593;28;20386;-67
2022/10/01 11:08:05;;;;;;;13.38;1.70;;;;;;;;;;4973178;28;20085;-70
2022/10/01 11:10:48;;;;;;;8.05;2.05;;;;;;;;;;4973601;28;20045;-68
2022/10/01 11:13:40;;;;;;;;;;;;;;;;;;4971580;28;20034;-68
2022/10/01 11:16:30;;;;;;;9.10;2.00;;;;;;;;;;4972960;28;20277;-66
2022/10/01 11:19:01;;;;;;;11.15;2.30;;;;;;;;;;4967284;28;20031;-68
2022/10/01 11:21:57;;;;;;;10.55;2.05;;;;;;;;;;4973508;28;20039;-67
2022/10/01 11:24:59;;;;;;;14.85;2.30;;;;;;;;;;4972329;28;20042;-66
2022/10/01 11:28:03;;;;;;;6.03;2.15;;;;;;;;;;4972823;28;20406;-67
2022/10/01 11:30:44;;;;;;;7.97;2.03;;;;;;;;;;4972803;28;20042;-67
2022/10/01 11:33:36;;;;;;;8.70;2.00;;;;;;;;;;4973357;28;20034;-73
2022/10/01 11:36:13;;;;;;;4.85;1.70;;;;;;;;;;4973534;28;20023;-77
2022/10/01 11:38:59;;;;;;;5.45;1.90;;;;;;;;;;4973226;28;20038;-77
2022/10/01 11:41:47;;;;;;;4.78;1.65;;;;;;;;;;4972794;28;20051;-70
2022/10/01 11:44:29;;;;;;;13.95;2.05;;;;;;;;;;4973450;28;20027;-68
2022/10/01 11:47:00;;;;;;;6.70;1.90;;;;;;;;;;4973479;28;20468;-67
2022/10/01 11:49:29;;;;;;;6.00;1.85;;;;;;;;;;4973194;28;20122;-69
2022/10/01 11:52:25;;;;;;;11.32;2.08;;;;;;;;;;4971937;28;20031;-66
2022/10/01 11:58:49;;;;;;;4.32;1.73;;;;;;;;;;4968811;28;20154;-68
2022/10/01 12:00:59;;;;;;;5.68;2.10;;;;;;;;;;4955858;28;20051;-72
2022/10/01 12:03:34;;;;;;;3.33;1.83;;;;;;;;;;4953647;29;20138;-67
2022/10/01 12:06:00;;;;;;;7.57;2.00;;;;;;;;;;4953689;28;20093;-67
2022/10/01 12:08:33;;;;;;;3.72;1.90;;;;;;;;;;4966828;28;20118;-74
2022/10/01 12:11:16;;;;;;;6.78;1.95;;;;;;;;;;4966680;28;20061;-73
2022/10/01 12:13:54;;;;;;;3.97;1.45;;;;;;;;;;4973623;28;20065;-65
2022/10/01 12:16:28;;;;;;;5.90;1.77;;;;;;;;;;4974545;28;20057;-74
2022/10/01 12:19:02;;;;;;;5.70;1.70;;;;;;;;;;4976171;28;20031;-75
2022/10/01 12:22:06;;;;;;;4.45;1.58;;;;;;;;;;4975561;28;20114;-73
2022/10/01 12:24:41;;;;;;;5.35;1.60;;;;;;;;;;4924807;28;20039;-70
2022/10/01 12:27:22;;;;;;;5.20;1.60;;;;;;;;;;4966867;28;20050;-65
2022/10/01 12:30:06;;;;;;;4.38;1.48;;;;;;;;;;4971969;28;20054;-67
2022/10/01 12:33:03;;;;;;;5.97;1.73;;;;;;;;;;4968671;28;20137;-67
2022/10/01 12:35:56;;;;;;;6.57;1.60;;;;;;;;;;4976248;28;20031;-69
2022/10/01 12:38:54;;;;;;;2.83;1.52;;;;;;;;;;4965294;28;20039;-68
2022/10/01 12:41:49;;;;;;;7.97;1.60;;;;;;;;;;4973492;28;20552;-68
2022/10/01 12:44:35;;;;;;;5.10;1.73;;;;;;;;;;4970701;28;20119;-66
2022/10/01 12:47:19;;;;;;;3.83;1.38;;;;;;;;;;4982844;28;20513;-72
2022/10/01 12:50:23;;;;;;;5.22;1.40;;;;;;;;;;4976079;28;20046;-68
2022/10/01 12:53:02;;;;;;;3.90;1.30;;;;;;;;;;4935075;29;20130;-69
2022/10/01 12:55:43;;;;;;;5.45;1.70;;;;;;;;;;4935642;29;20043;-68
2022/10/01 12:58:27;;;;;;;9.73;1.85;;;;;;;;;;4954743;28;20050;-71
2022/10/01 13:01:05;;;;;;;3.15;1.42;;;;;;;;;;4967066;28;20070;-67
2022/10/01 13:03:55;;;;;;;5.28;1.52;;;;;;;;;;4969583;28;20077;-68
2022/10/01 13:06:24;;;;;;;4.90;1.48;;;;;;;;;;4960469;28;20375;-72
2022/10/01 13:09:01;;;;;;;5.53;1.63;;;;;;;;;;4956412;29;20035;-71
2022/10/01 13:11:35;;;;;;;7.78;1.58;;;;;;;;;;4966216;28;20089;-69
2022/10/01 13:14:03;;;;;;;4.82;1.50;;;;;;;;;;4974770;28;20365;-69
2022/10/01 13:16:43;;;;;;;5.47;1.60;;;;;;;;;;4989098;28;20105;-68
2022/10/01 13:19:18;;;;;;;5.85;1.40;;;;;;;;;;4972372;28;20027;-72
2022/10/01 13:21:43;;;;;;;8.40;2.08;;;;;;;;;;4956389;28;20043;-70
2022/10/01 13:24:13;;;;;;;4.53;1.60;;;;;;;;;;4962013;28;20019;-72
2022/10/01 13:27:00;;;;;;;7.00;1.33;;;;;;;;;;4960967;28;20034;-78
2022/10/01 13:29:44;;;;;;;6.63;1.40;;;;;;;;;;4966124;28;20162;-75
2022/10/01 13:32:50;;;;;;;8.05;1.52;;;;;;;;;;4973442;28;20045;-72
2022/10/01 13:35:34;;;;;;;4.78;1.48;;;;;;;;;;4959558;28;20078;-71
2022/10/01 13:38:12;;;;;;;5.28;1.48;;;;;;;;;;4965548;28;20362;-74
2022/10/01 13:40:38;;;;;;;6.88;1.40;;;;;;;;;;4968346;28;20524;-68
2022/10/01 13:43:18;;;;;;;5.60;1.48;;;;;;;;;;4969144;28;20023;-68
2022/10/01 13:45:47;;;;;;;3.97;1.52;;;;;;;;;;4973204;28;20042;-68
2022/10/01 13:48:20;;;;;;;5.03;1.52;;;;;;;;;;4971595;28;20065;-69
2022/10/01 13:51:13;;;;;;;3.72;1.42;;;;;;;;;;4972754;28;20050;-68
2022/10/01 13:53:42;;;;;;;7.07;1.50;;;;;;;;;;4965779;28;20039;-68
2022/10/01 13:56:11;;;;;;;5.07;1.80;;;;;;;;;;4969451;28;20027;-67
2022/10/01 13:58:43;;;;;;;6.90;1.40;;;;;;;;;;4987911;28;20039;-69
2022/10/01 14:01:15;;;;;;;4.75;1.38;;;;;;;;;;4965584;28;20039;-67
2022/10/01 14:03:55;;;;;;;4.30;1.40;;;;;;;;;;4967059;28;20035;-68
2022/10/01 14:06:53;;;;;;;4.35;1.20;;;;;;;;;;4966623;28;20367;-70
2022/10/01 14:09:31;;;;;;;4.03;1.42;;;;;;;;;;4972489;28;20038;-69
2022/10/01 14:17:42;;;;;;;3.88;1.40;;;;;;;;;;4968812;28;20149;-67
2022/10/01 14:20:19;;;;;;;3.40;1.10;;;;;;;;;;4955817;28;20114;-69
2022/10/01 14:23:11;;;;;;;3.75;1.10;;;;;;;;;;4970914;28;20046;-77
2022/10/01 14:25:51;;;;;;;3.33;1.20;;;;;;;;;;4973030;28;20134;-73
2022/10/01 14:28:44;;;;;;;4.78;1.10;;;;;;;;;;4971396;28;20039;-67
2022/10/01 14:31:15;;;;;;;7.20;1.52;;;;;;;;;;4966362;28;20109;-70
2022/10/01 14:34:03;;;;;;;4.77;1.40;;;;;;;;;;4973718;28;20500;-68
2022/10/01 14:36:33;;;;;;;4.55;1.38;;;;;;;;;;4971660;28;20438;-69
2022/10/01 14:39:18;;;;;;;7.15;1.58;;;;;;;;;;4967597;28;20035;-66
2022/10/01 14:41:46;;;;;;;11.55;3.00;;;;;;;;;;4968530;28;20523;-74
2022/10/01 14:44:23;;;;;;;5.78;2.30;;;;;;;;;;4969864;28;20041;-67
2022/10/01 14:46:51;;;;;;;3.95;1.60;;;;;;;;;;4970655;28;20370;-75
2022/10/01 14:49:31;;;;;;;5.07;1.25;;;;;;;;;;4973639;28;20029;-68
2022/10/01 14:52:12;;;;;;;5.20;1.55;;;;;;;;;;4972633;28;20486;-75
2022/10/01 14:54:50;;;;;;;4.45;1.60;;;;;;;;;;4972912;28;20394;-75
2022/10/01 14:57:44;;;;;;;4.68;1.52;;;;;;;;;;4973897;28;20042;-66
2022/10/01 15:00:16;;;;;;;5.72;1.30;;;;;;;;;;4967739;28;20047;-68
2022/10/01 15:03:02;;;;;;;5.55;1.50;;;;;;;;;;4974194;28;20045;-66
2022/10/01 15:05:31;;;;;;;4.95;1.20;;;;;;;;;;4973519;28;20031;-67
2022/10/01 15:08:12;;;;;;;2.33;1.35;;;;;;;;;;4973771;28;20037;-68
2022/10/01 15:10:43;;;;;;;3.33;1.40;;;;;;;;;;4974181;28;20041;-67
2022/10/01 15:13:16;;;;;;;5.60;1.38;;;;;;;;;;4973984;28;20031;-68
2022/10/01 15:15:42;;;;;;;6.22;2.50;;;;;;;;;;4973694;28;20109;-66
2022/10/01 15:18:14;;;;;;;5.00;2.05;;;;;;;;;;4972939;28;20069;-68
2022/10/01 15:20:50;;;;;;;9.63;3.97;;;;;;;;;;4973775;28;20063;-66
2022/10/01 15:23:16;;;;;;;14.48;4.80;;;;;;;;;;4964937;28;20425;-69
2022/10/01 15:25:43;;;;;;;9.32;3.03;;;;;;;;;;4960176;28;20023;-70